sim
Sign-in with your pilot id or email,
or register
Callsign
Passwort

Schedule Details

Flight Number: RYR2524 (1)
Departure: Malaga Costa Del Sol Airport (LEMG) at 11:05
Arrival: Gothenburg Landvetter Airport (ESGG) at 15:05
Route: Ryanair Passenger Schedule. Enter filed route here before submitting Pirep.

Weather Information
Getting current METAR information for LEMG 251230Z 28008KT 250V320 CAVOK 24/09 Q1020 NOSIG
Getting current METAR information for ESGG 251220Z 20024KT 7000 -RA SCT005 BKN007 11/10 Q0998

Schedule Frequency

Route Map